createdAt,value
2023-02-09T00:02:11.057Z,16.80
2023-02-09T00:04:38.309Z,18.83
2023-02-09T00:07:05.632Z,19.77
2023-02-09T00:09:33.697Z,20.75
2023-02-09T00:12:16.929Z,20.35
2023-02-09T00:14:45.642Z,18.00
2023-02-09T00:17:13.665Z,20.45
2023-02-09T00:19:42.051Z,15.20
2023-02-09T00:22:10.779Z,25.02
2023-02-09T00:24:38.530Z,16.55
2023-02-09T00:27:05.905Z,19.70
2023-02-09T00:29:35.364Z,18.08
2023-02-09T00:32:04.333Z,16.25
2023-02-09T00:34:33.122Z,13.52
2023-02-09T00:37:01.162Z,16.45
2023-02-09T00:39:30.804Z,27.25
2023-02-09T00:42:13.642Z,13.63
2023-02-09T00:44:40.770Z,13.00
2023-02-09T00:47:10.587Z,12.93
2023-02-09T00:49:40.795Z,17.02
2023-02-09T00:52:10.036Z,16.10
2023-02-09T00:54:37.578Z,14.57
2023-02-09T00:57:06.460Z,18.73
2023-02-09T00:59:36.762Z,19.88
2023-02-09T01:02:05.989Z,16.17
2023-02-09T01:04:34.196Z,17.10
2023-02-09T01:07:02.923Z,17.20
2023-02-09T01:09:32.092Z,16.67
2023-02-09T01:12:04.589Z,18.90
2023-02-09T01:14:32.980Z,19.48
2023-02-09T01:17:02.559Z,16.55
2023-02-09T01:19:32.085Z,17.40
2023-02-09T01:22:01.015Z,17.60
2023-02-09T01:24:29.840Z,18.13
2023-02-09T01:26:57.899Z,18.15
2023-02-09T01:29:26.028Z,16.63
2023-02-09T01:31:55.658Z,18.83
2023-02-09T01:34:24.408Z,17.92
2023-02-09T01:36:53.519Z,15.05
2023-02-09T01:39:21.860Z,15.60
2023-02-09T01:41:51.821Z,22.02
2023-02-09T01:44:20.229Z,17.67
2023-02-09T01:46:47.969Z,16.38
2023-02-09T01:49:24.735Z,16.75
2023-02-09T01:51:59.742Z,22.38
2023-02-09T01:54:33.074Z,19.77
2023-02-09T01:57:06.191Z,19.02
2023-02-09T01:59:37.801Z,17.90
2023-02-09T02:02:08.917Z,17.30
2023-02-09T02:04:37.729Z,20.63
2023-02-09T02:07:14.716Z,17.08
2023-02-09T02:09:43.248Z,17.85
2023-02-09T02:12:11.576Z,17.20
2023-02-09T02:14:40.867Z,18.55
2023-02-09T02:17:35.742Z,18.60
2023-02-09T02:20:38.276Z,18.85
2023-02-09T02:23:36.900Z,16.80
2023-02-09T02:26:38.868Z,19.45
2023-02-09T02:29:26.940Z,20.83
2023-02-09T02:32:11.144Z,16.77
2023-02-09T02:34:43.656Z,23.98
2023-02-09T02:37:28.051Z,16.80
2023-02-09T02:40:21.606Z,17.85
2023-02-09T02:43:01.441Z,13.80
2023-02-09T02:45:51.071Z,20.92
2023-02-09T02:48:39.958Z,23.92
2023-02-09T02:51:11.592Z,19.77
2023-02-09T02:53:42.899Z,14.30
2023-02-09T02:56:17.647Z,14.90
2023-02-09T02:58:49.759Z,15.98
2023-02-09T03:01:22.265Z,15.63
2023-02-09T03:03:52.769Z,13.80
2023-02-09T03:06:19.634Z,13.82
2023-02-09T03:08:50.785Z,15.32
2023-02-09T03:11:20.770Z,14.50
2023-02-09T03:14:20.355Z,14.00
2023-02-09T03:17:04.396Z,17.17
2023-02-09T03:19:43.638Z,15.13
2023-02-09T03:22:33.459Z,16.83
2023-02-09T03:25:03.382Z,18.90
2023-02-09T03:27:39.179Z,21.88
2023-02-09T03:30:10.350Z,18.13
2023-02-09T03:32:41.875Z,19.20
2023-02-09T03:35:13.113Z,21.08
2023-02-09T03:37:42.509Z,18.55
2023-02-09T03:40:11.140Z,21.73
2023-02-09T03:42:42.090Z,21.65
2023-02-09T03:45:10.689Z,25.00
2023-02-09T03:47:40.122Z,21.95
2023-02-09T03:50:08.985Z,18.40
2023-02-09T03:52:36.684Z,18.58
2023-02-09T03:55:05.978Z,16.45
2023-02-09T03:57:35.216Z,18.48
2023-02-09T04:00:04.325Z,16.25
2023-02-09T04:02:32.573Z,17.10
2023-02-09T04:04:59.362Z,18.15
2023-02-09T04:07:28.199Z,23.08
2023-02-09T04:09:58.258Z,18.73
2023-02-09T04:12:26.930Z,25.05
2023-02-09T04:14:57.187Z,18.42
2023-02-09T04:17:25.497Z,17.02
2023-02-09T04:19:54.438Z,18.83
2023-02-09T04:22:21.791Z,15.00
2023-02-09T04:24:50.304Z,15.95
2023-02-09T04:27:17.535Z,17.90
2023-02-09T04:29:44.425Z,14.35
2023-02-09T04:32:12.721Z,16.20
2023-02-09T04:34:42.279Z,19.15
2023-02-09T04:37:11.434Z,13.63
2023-02-09T04:39:40.117Z,18.42
2023-02-09T04:42:10.081Z,28.98
2023-02-09T04:44:37.541Z,13.65
2023-02-09T04:47:05.785Z,22.70
2023-02-09T04:49:34.512Z,21.48
2023-02-09T04:52:03.164Z,15.05
2023-02-09T04:54:33.354Z,17.42
2023-02-09T04:57:15.650Z,18.02
2023-02-09T04:59:45.093Z,17.92
2023-02-09T05:02:13.574Z,16.50
2023-02-09T05:04:43.595Z,20.10
2023-02-09T05:07:11.619Z,18.60
2023-02-09T05:09:39.433Z,20.27
2023-02-09T05:12:11.153Z,17.70
2023-02-09T05:14:38.741Z,24.30
2023-02-09T05:17:07.936Z,20.52
2023-02-09T05:19:36.798Z,17.77
2023-02-09T05:22:04.999Z,20.48
2023-02-09T05:24:34.392Z,17.35
2023-02-09T05:27:02.594Z,16.92
2023-02-09T05:29:29.788Z,18.10
2023-02-09T05:31:57.811Z,14.23
2023-02-09T05:34:25.714Z,16.90
2023-02-09T05:36:54.290Z,24.45
2023-02-09T05:39:24.109Z,19.88
2023-02-09T05:42:08.532Z,19.73
2023-02-09T05:44:36.331Z,19.17
2023-02-09T05:47:04.483Z,23.65
2023-02-09T05:49:33.351Z,19.25
2023-02-09T05:52:03.413Z,19.42
2023-02-09T05:54:31.465Z,24.50
2023-02-09T05:57:00.873Z,21.05
2023-02-09T05:59:28.380Z,29.20
2023-02-09T06:01:56.766Z,19.92
2023-02-09T06:04:26.395Z,25.60
2023-02-09T06:06:56.544Z,27.45
2023-02-09T06:09:25.271Z,22.73
2023-02-09T06:11:54.184Z,22.77
2023-02-09T06:14:23.934Z,22.83
2023-02-09T06:16:52.539Z,28.83
2023-02-09T06:19:22.734Z,22.25
2023-02-09T06:21:49.737Z,17.50
2023-02-09T06:24:18.587Z,20.90
2023-02-09T06:26:46.465Z,18.77
2023-02-09T06:29:15.920Z,25.95
2023-02-09T06:31:43.163Z,19.55
2023-02-09T06:34:11.389Z,23.10
2023-02-09T06:36:40.122Z,19.13
2023-02-09T06:39:10.943Z,16.75
2023-02-09T06:41:40.664Z,25.95
2023-02-09T06:44:09.508Z,22.08
2023-02-09T06:46:36.857Z,22.90
2023-02-09T06:49:04.400Z,21.40
2023-02-09T06:51:33.765Z,21.42
2023-02-09T06:54:01.720Z,21.88
2023-02-09T06:56:29.472Z,23.10
2023-02-09T06:58:56.361Z,17.98
2023-02-09T07:01:25.058Z,20.38
2023-02-09T07:03:52.052Z,27.90
2023-02-09T07:06:22.430Z,26.50
2023-02-09T07:08:51.435Z,23.40
2023-02-09T07:11:19.845Z,27.83
2023-02-09T07:13:48.264Z,28.30
2023-02-09T07:16:17.064Z,26.17
2023-02-09T07:18:45.861Z,27.17
2023-02-09T07:21:18.521Z,22.70
2023-02-09T07:23:47.915Z,26.30
2023-02-09T07:26:18.061Z,25.10
2023-02-09T07:28:45.635Z,19.75
2023-02-09T07:31:16.553Z,22.90
2023-02-09T07:33:45.991Z,20.95
2023-02-09T07:36:16.477Z,20.33
2023-02-09T07:38:44.836Z,26.73
2023-02-09T07:41:16.539Z,21.33
2023-02-09T07:43:45.121Z,18.00
2023-02-09T07:46:17.938Z,23.60
2023-02-09T07:48:45.186Z,19.27
2023-02-09T07:51:16.112Z,20.83
2023-02-09T07:53:45.827Z,24.77
2023-02-09T07:56:15.516Z,23.30
2023-02-09T07:58:43.902Z,27.67
2023-02-09T08:01:14.384Z,22.75
2023-02-09T08:03:46.941Z,20.85
2023-02-09T08:06:40.985Z,30.58
2023-02-09T08:09:10.857Z,24.65
2023-02-09T08:11:45.810Z,27.00
2023-02-09T08:14:19.218Z,28.45
2023-02-09T08:16:50.008Z,22.98
2023-02-09T08:19:24.377Z,24.95
2023-02-09T08:21:53.908Z,25.35
2023-02-09T08:24:22.649Z,22.92
2023-02-09T08:26:51.177Z,20.77
2023-02-09T08:29:19.307Z,22.42
2023-02-09T08:31:48.352Z,24.48
2023-02-09T08:34:16.821Z,26.50
2023-02-09T08:36:45.798Z,21.73
2023-02-09T08:39:13.224Z,23.85
2023-02-09T08:41:43.393Z,22.90
2023-02-09T08:44:14.634Z,17.52
2023-02-09T08:46:44.176Z,17.70
2023-02-09T08:49:14.576Z,17.50
2023-02-09T08:51:43.358Z,23.05
2023-02-09T08:54:12.475Z,17.58
2023-02-09T08:56:42.799Z,17.55
2023-02-09T08:59:11.422Z,18.55
2023-02-09T09:01:41.236Z,14.40
2023-02-09T09:04:10.889Z,18.75
2023-02-09T09:06:38.198Z,17.52
2023-02-09T09:09:06.856Z,17.38
2023-02-09T09:11:35.399Z,20.08
2023-02-09T09:14:07.038Z,19.20
2023-02-09T09:16:34.830Z,21.88
2023-02-09T09:19:05.753Z,23.83
2023-02-09T09:21:34.347Z,20.98
2023-02-09T09:24:02.999Z,20.15
2023-02-09T09:26:30.659Z,18.67
2023-02-09T09:28:58.996Z,21.90
2023-02-09T09:31:27.041Z,18.13
2023-02-09T09:33:56.795Z,19.77
2023-02-09T09:36:24.790Z,19.55
2023-02-09T09:38:52.272Z,16.63
2023-02-09T09:41:21.750Z,19.98
2023-02-09T09:43:49.506Z,19.83
2023-02-09T09:46:23.209Z,19.65
2023-02-09T09:48:54.957Z,18.05
2023-02-09T09:51:45.409Z,18.60
2023-02-09T09:54:18.851Z,18.02
2023-02-09T09:56:46.700Z,17.33
2023-02-09T09:59:19.533Z,18.70
2023-02-09T10:01:50.893Z,16.98
2023-02-09T10:04:22.264Z,15.73
2023-02-09T10:06:59.700Z,16.48
2023-02-09T10:09:39.261Z,15.32
2023-02-09T10:12:23.458Z,20.83
2023-02-09T10:14:51.389Z,15.10
2023-02-09T10:17:19.562Z,18.38
2023-02-09T10:20:08.207Z,17.08
2023-02-09T10:22:35.965Z,20.60
2023-02-09T10:25:24.805Z,17.15
2023-02-09T10:27:51.778Z,28.77
2023-02-09T10:30:28.779Z,17.15
2023-02-09T10:33:01.255Z,16.90
2023-02-09T10:35:47.257Z,16.83
2023-02-09T10:38:19.364Z,18.38
2023-02-09T10:40:48.427Z,18.25
2023-02-09T10:43:33.480Z,19.73
2023-02-09T10:46:04.033Z,21.25
2023-02-09T10:48:41.806Z,22.25
2023-02-09T10:51:15.942Z,19.40
2023-02-09T10:54:03.385Z,19.17
2023-02-09T10:56:35.896Z,17.05
2023-02-09T10:59:25.401Z,22.05
2023-02-09T11:02:03.654Z,16.40
2023-02-09T11:04:40.485Z,22.95
2023-02-09T11:09:45.725Z,15.82
2023-02-09T11:12:14.154Z,17.30
2023-02-09T11:14:44.406Z,20.63
2023-02-09T11:17:37.435Z,19.23
2023-02-09T11:20:22.058Z,18.13
2023-02-09T11:22:49.719Z,14.52
2023-02-09T11:25:19.571Z,15.95
2023-02-09T11:28:22.009Z,15.63
2023-02-09T11:31:20.815Z,20.55
2023-02-09T11:34:17.660Z,14.27
2023-02-09T11:36:51.371Z,21.25
2023-02-09T11:39:40.093Z,19.13
2023-02-09T11:42:30.673Z,15.57
2023-02-09T11:45:03.515Z,16.92
2023-02-09T11:47:49.441Z,16.10
2023-02-09T11:50:48.044Z,21.50
2023-02-09T11:53:42.846Z,14.20
2023-02-09T11:56:14.067Z,16.58
2023-02-09T11:58:55.878Z,16.67
2023-02-09T12:01:26.012Z,16.98
2023-02-09T12:03:57.734Z,17.88
2023-02-09T12:06:26.991Z,13.00
2023-02-09T12:09:04.161Z,15.70
2023-02-09T12:11:42.374Z,15.70
2023-02-09T12:14:16.964Z,18.50
2023-02-09T12:16:52.445Z,14.93
2023-02-09T12:19:27.063Z,17.07
2023-02-09T12:21:54.716Z,22.05
2023-02-09T12:24:39.594Z,16.20
2023-02-09T12:27:26.477Z,20.92
2023-02-09T12:32:41.365Z,15.95
2023-02-09T12:35:27.060Z,21.40
2023-02-09T12:38:19.844Z,18.88
2023-02-09T12:41:05.083Z,14.23
2023-02-09T12:43:35.676Z,18.92
2023-02-09T12:46:14.407Z,14.23
2023-02-09T12:49:12.666Z,21.17
2023-02-09T12:51:44.556Z,15.75
2023-02-09T12:54:28.875Z,17.20
2023-02-09T12:56:58.383Z,19.52
2023-02-09T12:59:27.392Z,17.77
2023-02-09T13:02:16.047Z,17.90
2023-02-09T13:05:13.617Z,13.38
2023-02-09T13:07:55.835Z,16.27
2023-02-09T13:10:43.013Z,16.45
2023-02-09T13:13:12.613Z,24.43
2023-02-09T13:16:19.857Z,17.23
2023-02-09T13:19:06.509Z,15.10
2023-02-09T13:22:05.303Z,17.02
2023-02-09T13:24:52.958Z,16.08
2023-02-09T13:27:23.631Z,16.92
2023-02-09T13:29:53.930Z,17.42
2023-02-09T13:32:44.914Z,16.73
2023-02-09T13:35:24.453Z,18.65
2023-02-09T13:37:57.166Z,26.40
2023-02-09T13:40:34.232Z,22.60
2023-02-09T13:43:20.427Z,16.92
2023-02-09T13:45:50.456Z,19.70
2023-02-09T13:48:29.730Z,21.92
2023-02-09T13:51:01.826Z,18.73
2023-02-09T13:53:32.087Z,15.70
2023-02-09T13:56:02.791Z,15.45
2023-02-09T13:58:36.150Z,23.13
2023-02-09T14:01:10.073Z,20.17
2023-02-09T14:03:57.524Z,23.67
2023-02-09T14:06:37.574Z,18.98
2023-02-09T14:09:11.961Z,20.95
2023-02-09T14:11:43.793Z,23.85
2023-02-09T14:14:12.753Z,17.65
2023-02-09T14:16:52.676Z,22.67
2023-02-09T14:19:28.474Z,19.63
2023-02-09T14:21:55.504Z,19.02
2023-02-09T14:24:25.234Z,19.52
2023-02-09T14:26:55.629Z,19.20
2023-02-09T14:29:27.922Z,18.77
2023-02-09T14:31:59.834Z,19.80
2023-02-09T14:34:38.976Z,20.50
2023-02-09T14:37:29.665Z,24.35
2023-02-09T14:40:21.858Z,19.30
2023-02-09T14:43:23.116Z,19.48
2023-02-09T14:46:02.087Z,18.42
2023-02-09T14:48:31.949Z,20.60
2023-02-09T14:51:11.643Z,20.10
2023-02-09T14:53:43.172Z,16.95
2023-02-09T14:56:31.104Z,17.80
2023-02-09T14:59:00.930Z,18.25
2023-02-09T15:01:29.456Z,17.77
2023-02-09T15:03:57.624Z,19.55
2023-02-09T15:06:33.517Z,21.08
2023-02-09T15:09:05.913Z,18.50
2023-02-09T15:11:51.976Z,18.00
2023-02-09T15:14:26.141Z,24.00
2023-02-09T15:16:57.090Z,17.92
2023-02-09T15:19:26.942Z,15.60
2023-02-09T15:22:06.665Z,17.58
2023-02-09T15:24:37.796Z,18.48
2023-02-09T15:27:06.528Z,15.10
2023-02-09T15:29:35.122Z,20.92
2023-02-09T15:32:05.355Z,16.60
2023-02-09T15:34:34.479Z,17.35
2023-02-09T15:37:04.241Z,17.35
2023-02-09T15:39:32.844Z,15.30
2023-02-09T15:42:20.582Z,22.23
2023-02-09T15:45:06.754Z,18.33
2023-02-09T15:47:53.571Z,18.83
2023-02-09T15:50:22.471Z,19.20
2023-02-09T15:52:50.585Z,22.10
2023-02-09T15:55:21.153Z,20.08
2023-02-09T15:57:52.674Z,17.50
2023-02-09T16:00:24.944Z,17.95
2023-02-09T16:02:55.443Z,15.43
2023-02-09T16:05:27.365Z,13.60
2023-02-09T16:07:57.633Z,19.75
2023-02-09T16:10:30.973Z,23.42
2023-02-09T16:13:02.838Z,20.40
2023-02-09T16:15:30.792Z,23.80
2023-02-09T16:17:59.450Z,24.10
2023-02-09T16:20:29.649Z,22.75
2023-02-09T16:23:15.215Z,19.38
2023-02-09T16:25:51.624Z,30.65
2023-02-09T16:28:23.011Z,24.77
2023-02-09T16:30:52.744Z,28.38
2023-02-09T16:33:22.317Z,23.00
2023-02-09T16:36:00.206Z,18.05
2023-02-09T16:38:29.427Z,20.55
2023-02-09T16:40:57.742Z,23.80
2023-02-09T16:43:26.220Z,20.77
2023-02-09T16:46:03.340Z,19.20
2023-02-09T16:48:35.333Z,23.42
2023-02-09T16:51:04.270Z,22.50
2023-02-09T16:53:37.998Z,22.10
2023-02-09T16:56:10.459Z,27.63
2023-02-09T16:58:39.693Z,25.02
2023-02-09T17:01:18.053Z,22.00
2023-02-09T17:03:48.393Z,25.27
2023-02-09T17:06:23.960Z,30.70
2023-02-09T17:08:53.795Z,25.67
2023-02-09T17:11:25.244Z,23.77
2023-02-09T17:13:53.581Z,25.67
2023-02-09T17:16:29.149Z,23.40
2023-02-09T17:19:01.111Z,29.08
2023-02-09T17:21:32.829Z,23.33
2023-02-09T17:24:01.108Z,21.50
2023-02-09T17:26:29.322Z,25.15
2023-02-09T17:28:57.622Z,22.40
2023-02-09T17:31:36.133Z,26.25
2023-02-09T17:34:09.939Z,25.25
2023-02-09T17:36:38.433Z,27.02
2023-02-09T17:39:06.619Z,23.38
2023-02-09T17:41:45.673Z,24.05
2023-02-09T17:44:31.596Z,28.75
2023-02-09T17:47:04.853Z,21.80
2023-02-09T17:49:34.995Z,31.52
2023-02-09T17:52:03.247Z,27.85
2023-02-09T17:54:33.784Z,24.98
2023-02-09T17:57:03.520Z,27.63
2023-02-09T17:59:31.531Z,29.08
2023-02-09T18:01:59.507Z,29.27
2023-02-09T18:04:29.414Z,20.80
2023-02-09T18:06:58.898Z,31.35
2023-02-09T18:09:27.653Z,30.60
2023-02-09T18:11:59.928Z,30.95
2023-02-09T18:14:29.820Z,26.42
2023-02-09T18:16:58.885Z,37.50
2023-02-09T18:19:26.438Z,29.13
2023-02-09T18:21:57.967Z,39.70
2023-02-09T18:24:29.433Z,29.15
2023-02-09T18:26:57.159Z,33.13
2023-02-09T18:29:29.641Z,29.85
2023-02-09T18:32:01.071Z,32.45
2023-02-09T18:34:30.204Z,33.60
2023-02-09T18:36:58.630Z,28.85
2023-02-09T18:39:26.702Z,23.38
2023-02-09T18:41:55.098Z,32.80
2023-02-09T18:44:29.753Z,32.03
2023-02-09T18:47:00.766Z,27.27
2023-02-09T18:49:29.541Z,27.27
2023-02-09T18:51:59.350Z,26.27
2023-02-09T18:54:29.239Z,22.92
2023-02-09T18:56:57.616Z,25.85
2023-02-09T18:59:30.580Z,26.05
2023-02-09T19:01:59.558Z,23.73
2023-02-09T19:04:27.417Z,23.83
2023-02-09T19:06:55.570Z,22.40
2023-02-09T19:09:24.826Z,23.00
2023-02-09T19:11:51.753Z,28.08
2023-02-09T19:14:35.270Z,24.40
2023-02-09T19:17:03.643Z,26.67
2023-02-09T19:19:33.629Z,32.17
2023-02-09T19:22:00.655Z,31.98
2023-02-09T19:24:29.208Z,25.13
2023-02-09T19:26:57.233Z,29.00
2023-02-09T19:29:26.223Z,21.75
2023-02-09T19:31:55.502Z,28.38
2023-02-09T19:34:24.287Z,23.70
2023-02-09T19:36:51.896Z,23.05
2023-02-09T19:39:20.904Z,42.53
2023-02-09T19:41:50.139Z,19.60
2023-02-09T19:44:17.607Z,22.42
2023-02-09T19:46:47.531Z,23.67
2023-02-09T19:49:19.661Z,20.98
2023-02-09T19:51:47.026Z,29.77
2023-02-09T19:54:14.553Z,24.10
2023-02-09T19:56:45.223Z,28.83
2023-02-09T19:59:13.883Z,28.70
2023-02-09T20:01:41.980Z,30.60
2023-02-09T20:04:09.659Z,23.60
2023-02-09T20:06:38.654Z,26.73
2023-02-09T20:09:06.708Z,29.52
2023-02-09T20:11:35.820Z,24.20
2023-02-09T20:14:06.343Z,35.97
2023-02-09T20:16:34.788Z,31.30
2023-02-09T20:19:02.433Z,34.72
2023-02-09T20:21:30.855Z,32.88
2023-02-09T20:23:59.413Z,25.00
2023-02-09T20:26:30.428Z,28.42
2023-02-09T20:28:58.549Z,30.42
2023-02-09T20:31:30.171Z,27.17
2023-02-09T20:33:59.393Z,27.05
2023-02-09T20:36:27.152Z,28.38
2023-02-09T20:38:56.084Z,35.03
2023-02-09T20:41:24.206Z,35.88
2023-02-09T20:44:08.319Z,31.73
2023-02-09T20:46:56.902Z,30.67
2023-02-09T20:49:31.924Z,23.65
2023-02-09T20:51:59.532Z,28.33
2023-02-09T20:54:28.589Z,29.02
2023-02-09T20:56:58.436Z,31.27
2023-02-09T20:59:26.581Z,27.92
2023-02-09T21:01:53.794Z,31.85
2023-02-09T21:04:21.501Z,23.65
2023-02-09T21:06:49.881Z,29.15
2023-02-09T21:09:20.263Z,28.85
2023-02-09T21:11:48.775Z,29.38
2023-02-09T21:14:27.206Z,28.00
2023-02-09T21:17:05.995Z,30.75
2023-02-09T21:19:35.702Z,31.10
2023-02-09T21:22:04.638Z,26.90
2023-02-09T21:24:32.244Z,36.22
2023-02-09T21:27:00.952Z,31.88
2023-02-09T21:29:30.221Z,33.25
2023-02-09T21:32:02.437Z,42.45
2023-02-09T21:34:32.209Z,35.47
2023-02-09T21:36:59.186Z,33.72
2023-02-09T21:39:27.869Z,37.15
2023-02-09T21:42:11.046Z,34.03
2023-02-09T21:44:38.817Z,30.63
2023-02-09T21:47:07.362Z,34.53
2023-02-09T21:49:36.197Z,27.90
2023-02-09T21:52:04.806Z,42.65
2023-02-09T21:54:34.550Z,46.28
2023-02-09T21:57:04.337Z,36.42
2023-02-09T21:59:32.804Z,38.78
2023-02-09T22:02:02.416Z,35.92
2023-02-09T22:04:29.894Z,38.70
2023-02-09T22:06:58.255Z,33.25
2023-02-09T22:09:26.453Z,30.23
2023-02-09T22:11:55.050Z,32.58
2023-02-09T22:14:24.108Z,31.85
2023-02-09T22:16:51.892Z,34.47
2023-02-09T22:19:19.795Z,34.28
2023-02-09T22:21:47.882Z,28.45
2023-02-09T22:24:17.038Z,36.83
2023-02-09T22:26:46.261Z,41.45
2023-02-09T22:29:14.823Z,32.25
2023-02-09T22:31:42.606Z,36.58
2023-02-09T22:34:10.135Z,37.45
2023-02-09T22:36:40.436Z,37.90
2023-02-09T22:39:08.293Z,36.67
2023-02-09T22:41:36.380Z,32.33
2023-02-09T22:44:09.036Z,38.40
2023-02-09T22:46:39.531Z,31.90
2023-02-09T22:49:09.883Z,40.30
2023-02-09T22:51:38.818Z,32.60
2023-02-09T22:54:08.193Z,36.90
2023-02-09T22:56:37.477Z,35.63
2023-02-09T22:59:06.160Z,34.45
2023-02-09T23:01:35.239Z,32.15
2023-02-09T23:04:02.374Z,40.85
2023-02-09T23:06:31.790Z,33.97
2023-02-09T23:09:02.547Z,34.78
2023-02-09T23:11:32.155Z,30.05
2023-02-09T23:14:09.629Z,37.10
2023-02-09T23:16:40.290Z,30.80
2023-02-09T23:19:11.036Z,37.92
2023-02-09T23:21:41.818Z,29.08
2023-02-09T23:24:10.361Z,30.65
2023-02-09T23:26:38.487Z,33.75
2023-02-09T23:29:09.807Z,33.25
2023-02-09T23:31:38.002Z,34.08
2023-02-09T23:34:06.700Z,35.42
2023-02-09T23:36:36.343Z,33.70
2023-02-09T23:39:07.914Z,43.38
2023-02-09T23:41:37.580Z,32.95
2023-02-09T23:44:06.767Z,31.08
2023-02-09T23:46:34.751Z,35.97
2023-02-09T23:49:03.778Z,35.75
2023-02-09T23:51:40.488Z,32.78
2023-02-09T23:54:08.558Z,33.95
2023-02-09T23:56:38.086Z,38.30
2023-02-09T23:59:08.594Z,33.38
